sensor_id;sensor_type;location;lat;lon;timestamp;pressure;altitude;pressure_sealevel;temperature;humidity
33280;BME280;20403;43.114;12.434;2023-02-21T00:02:09;100015.41;;;7.84;100.00
33280;BME280;20403;43.114;12.434;2023-02-21T00:04:53;100008.06;;;7.88;100.00
33280;BME280;20403;43.114;12.434;2023-02-21T00:07:37;100021.94;;;7.95;100.00
33280;BME280;20403;43.114;12.434;2023-02-21T00:10:21;100004.31;;;7.90;100.00
33280;BME280;20403;43.114;12.434;2023-02-21T00:13:05;100007.75;;;8.12;100.00
33280;BME280;20403;43.114;12.434;2023-02-21T00:15:49;99999.31;;;8.25;100.00
33280;BME280;20403;43.114;12.434;2023-02-21T00:18:37;100002.56;;;8.34;100.00
33280;BME280;20403;43.114;12.434;2023-02-21T00:21:22;99994.53;;;8.29;100.00
33280;BME280;20403;43.114;12.434;2023-02-21T00:24:06;100001.34;;;8.30;100.00
33280;BME280;20403;43.114;12.434;2023-02-21T00:26:51;100003.31;;;8.28;100.00
33280;BME280;20403;43.114;12.434;2023-02-21T00:29:35;99994.16;;;8.47;100.00
33280;BME280;20403;43.114;12.434;2023-02-21T00:32:18;99991.41;;;8.55;100.00
33280;BME280;20403;43.114;12.434;2023-02-21T00:35:03;99972.25;;;8.56;100.00
33280;BME280;20403;43.114;12.434;2023-02-21T00:37:50;99974.47;;;8.59;100.00
33280;BME280;20403;43.114;12.434;2023-02-21T00:40:34;99972.41;;;8.54;100.00
33280;BME280;20403;43.114;12.434;2023-02-21T00:43:18;99971.28;;;8.63;100.00
33280;BME280;20403;43.114;12.434;2023-02-21T00:46:02;99969.56;;;8.71;100.00
33280;BME280;20403;43.114;12.434;2023-02-21T00:48:46;99976.63;;;8.77;100.00
33280;BME280;20403;43.114;12.434;2023-02-21T00:51:30;99969.38;;;8.72;100.00
33280;BME280;20403;43.114;12.434;2023-02-21T00:54:14;99975.53;;;8.65;100.00
33280;BME280;20403;43.114;12.434;2023-02-21T00:56:58;99975.81;;;8.55;100.00
33280;BME280;20403;43.114;12.434;2023-02-21T00:59:42;99970.69;;;8.61;100.00
33280;BME280;20403;43.114;12.434;2023-02-21T01:02:26;99966.66;;;8.59;100.00
33280;BME280;20403;43.114;12.434;2023-02-21T01:05:10;99969.69;;;8.62;100.00
33280;BME280;20403;43.114;12.434;2023-02-21T01:07:54;99963.00;;;8.75;100.00
33280;BME280;20403;43.114;12.434;2023-02-21T01:10:38;99962.81;;;8.76;100.00
33280;BME280;20403;43.114;12.434;2023-02-21T01:13:21;99958.53;;;8.69;100.00
33280;BME280;20403;43.114;12.434;2023-02-21T01:16:06;99955.00;;;8.76;100.00
33280;BME280;20403;43.114;12.434;2023-02-21T01:18:50;99951.78;;;8.74;100.00
33280;BME280;20403;43.114;12.434;2023-02-21T01:21:35;99957.41;;;8.78;100.00
33280;BME280;20403;43.114;12.434;2023-02-21T01:24:19;99955.88;;;8.83;100.00
33280;BME280;20403;43.114;12.434;2023-02-21T01:27:02;99949.81;;;8.76;100.00
33280;BME280;20403;43.114;12.434;2023-02-21T01:29:47;99955.56;;;8.72;100.00
33280;BME280;20403;43.114;12.434;2023-02-21T01:32:31;99946.41;;;8.76;100.00
33280;BME280;20403;43.114;12.434;2023-02-21T01:35:15;99941.28;;;8.89;100.00
33280;BME280;20403;43.114;12.434;2023-02-21T01:37:58;99941.91;;;8.91;100.00
33280;BME280;20403;43.114;12.434;2023-02-21T01:40:42;99937.38;;;9.00;100.00
33280;BME280;20403;43.114;12.434;2023-02-21T01:43:28;99940.66;;;8.80;100.00
33280;BME280;20403;43.114;12.434;2023-02-21T01:46:16;99944.28;;;8.86;100.00
33280;BME280;20403;43.114;12.434;2023-02-21T01:49:04;99931.03;;;8.81;100.00
33280;BME280;20403;43.114;12.434;2023-02-21T01:51:49;99935.00;;;8.77;100.00
33280;BME280;20403;43.114;12.434;2023-02-21T01:54:48;99934.16;;;8.70;100.00
33280;BME280;20403;43.114;12.434;2023-02-21T01:57:32;99927.59;;;8.74;100.00
33280;BME280;20403;43.114;12.434;2023-02-21T02:00:17;99932.25;;;8.57;100.00
33280;BME280;20403;43.114;12.434;2023-02-21T02:03:04;99925.69;;;8.61;100.00
33280;BME280;20403;43.114;12.434;2023-02-21T02:05:52;99926.97;;;8.72;100.00
33280;BME280;20403;43.114;12.434;2023-02-21T02:08:37;99933.13;;;8.92;100.00
33280;BME280;20403;43.114;12.434;2023-02-21T02:11:46;99927.25;;;8.83;100.00
33280;BME280;20403;43.114;12.434;2023-02-21T02:15:02;99927.03;;;8.78;100.00
33280;BME280;20403;43.114;12.434;2023-02-21T02:38:04;99904.59;;;8.77;100.00
33280;BME280;20403;43.114;12.434;2023-02-21T02:43:43;99906.69;;;8.89;100.00
33280;BME280;20403;43.114;12.434;2023-02-21T02:46:23;99903.00;;;8.76;100.00
33280;BME280;20403;43.114;12.434;2023-02-21T02:49:04;99897.59;;;8.78;100.00
33280;BME280;20403;43.114;12.434;2023-02-21T02:51:33;99895.78;;;8.72;100.00
33280;BME280;20403;43.114;12.434;2023-02-21T02:53:59;99901.72;;;8.66;100.00
33280;BME280;20403;43.114;12.434;2023-02-21T02:56:25;99891.31;;;8.66;100.00
33280;BME280;20403;43.114;12.434;2023-02-21T02:59:03;99895.44;;;8.81;100.00
33280;BME280;20403;43.114;12.434;2023-02-21T03:07:20;99886.25;;;9.20;100.00
33280;BME280;20403;43.114;12.434;2023-02-21T03:15:50;99895.00;;;9.06;100.00
33280;BME280;20403;43.114;12.434;2023-02-21T03:18:27;99885.31;;;8.93;100.00
33280;BME280;20403;43.114;12.434;2023-02-21T03:20:56;99890.97;;;9.03;100.00
33280;BME280;20403;43.114;12.434;2023-02-21T03:23:25;99895.00;;;9.06;100.00
33280;BME280;20403;43.114;12.434;2023-02-21T03:25:52;99892.56;;;9.04;100.00
33280;BME280;20403;43.114;12.434;2023-02-21T03:28:20;99894.56;;;9.02;100.00
33280;BME280;20403;43.114;12.434;2023-02-21T03:30:48;99889.72;;;8.93;100.00
33280;BME280;20403;43.114;12.434;2023-02-21T03:33:15;99888.91;;;8.92;100.00
33280;BME280;20403;43.114;12.434;2023-02-21T03:35:41;99883.13;;;8.97;100.00
33280;BME280;20403;43.114;12.434;2023-02-21T03:38:09;99884.31;;;8.94;100.00
33280;BME280;20403;43.114;12.434;2023-02-21T03:40:34;99884.47;;;8.86;100.00
33280;BME280;20403;43.114;12.434;2023-02-21T03:43:01;99886.59;;;8.76;100.00
33280;BME280;20403;43.114;12.434;2023-02-21T03:45:27;99887.75;;;8.67;100.00
33280;BME280;20403;43.114;12.434;2023-02-21T03:47:52;99886.84;;;8.81;100.00
33280;BME280;20403;43.114;12.434;2023-02-21T03:50:18;99893.91;;;8.94;100.00
33280;BME280;20403;43.114;12.434;2023-02-21T03:52:43;99895.59;;;9.08;100.00
33280;BME280;20403;43.114;12.434;2023-02-21T03:55:09;99891.31;;;8.94;100.00
33280;BME280;20403;43.114;12.434;2023-02-21T03:57:34;99896.31;;;8.95;100.00
33280;BME280;20403;43.114;12.434;2023-02-21T04:00:00;99891.78;;;9.04;100.00
33280;BME280;20403;43.114;12.434;2023-02-21T04:02:26;99897.91;;;8.96;100.00
33280;BME280;20403;43.114;12.434;2023-02-21T04:04:51;99893.09;;;8.93;100.00
33280;BME280;20403;43.114;12.434;2023-02-21T04:07:18;99899.25;;;8.86;100.00
33280;BME280;20403;43.114;12.434;2023-02-21T04:09:44;99895.88;;;8.85;100.00
33280;BME280;20403;43.114;12.434;2023-02-21T04:12:09;99894.25;;;8.84;100.00
33280;BME280;20403;43.114;12.434;2023-02-21T04:14:35;99896.28;;;8.89;100.00
33280;BME280;20403;43.114;12.434;2023-02-21T04:17:00;99900.72;;;8.95;100.00
33280;BME280;20403;43.114;12.434;2023-02-21T04:19:26;99894.94;;;8.99;100.00
33280;BME280;20403;43.114;12.434;2023-02-21T04:21:51;99896.75;;;8.99;100.00
33280;BME280;20403;43.114;12.434;2023-02-21T04:24:16;99895.97;;;9.05;100.00
33280;BME280;20403;43.114;12.434;2023-02-21T04:26:42;99898.00;;;9.10;100.00
33280;BME280;20403;43.114;12.434;2023-02-21T04:29:07;99900.81;;;9.15;100.00
33280;BME280;20403;43.114;12.434;2023-02-21T04:31:33;99893.41;;;9.12;100.00
33280;BME280;20403;43.114;12.434;2023-02-21T04:33:59;99905.84;;;9.16;100.00
33280;BME280;20403;43.114;12.434;2023-02-21T04:36:25;99905.63;;;9.11;100.00
33280;BME280;20403;43.114;12.434;2023-02-21T04:38:51;99904.00;;;9.03;100.00
33280;BME280;20403;43.114;12.434;2023-02-21T04:41:17;99893.81;;;9.09;100.00
33280;BME280;20403;43.114;12.434;2023-02-21T04:43:43;99904.66;;;9.19;100.00
33280;BME280;20403;43.114;12.434;2023-02-21T04:46:10;99889.63;;;9.14;100.00
33280;BME280;20403;43.114;12.434;2023-02-21T04:48:35;99895.28;;;9.24;100.00
33280;BME280;20403;43.114;12.434;2023-02-21T04:51:01;99895.28;;;9.24;100.00
33280;BME280;20403;43.114;12.434;2023-02-21T04:53:26;99896.00;;;9.12;100.00
33280;BME280;20403;43.114;12.434;2023-02-21T04:55:52;99888.84;;;9.20;100.00
33280;BME280;20403;43.114;12.434;2023-02-21T04:58:17;99890.59;;;9.07;100.00
33280;BME280;20403;43.114;12.434;2023-02-21T05:00:43;99888.97;;;9.05;100.00
33280;BME280;20403;43.114;12.434;2023-02-21T05:03:08;99886.41;;;9.12;100.00
33280;BME280;20403;43.114;12.434;2023-02-21T05:05:33;99891.78;;;9.04;100.00
33280;BME280;20403;43.114;12.434;2023-02-21T05:07:59;99881.59;;;9.09;100.00
33280;BME280;20403;43.114;12.434;2023-02-21T05:10:24;99882.91;;;8.98;100.00
33280;BME280;20403;43.114;12.434;2023-02-21T05:12:49;99885.34;;;9.00;100.00
33280;BME280;20403;43.114;12.434;2023-02-21T05:15:15;99884.34;;;9.01;100.00
33280;BME280;20403;43.114;12.434;2023-02-21T05:17:40;99883.78;;;9.12;100.00
33280;BME280;20403;43.114;12.434;2023-02-21T05:20:07;99883.00;;;9.12;100.00
33280;BME280;20403;43.114;12.434;2023-02-21T05:22:40;99893.59;;;9.03;100.00
33280;BME280;20403;43.114;12.434;2023-02-21T05:25:20;99886.41;;;9.12;100.00
33280;BME280;20403;43.114;12.434;2023-02-21T05:27:46;99886.56;;;9.04;100.00
33280;BME280;20403;43.114;12.434;2023-02-21T05:30:13;99886.38;;;9.05;100.00
33280;BME280;20403;43.114;12.434;2023-02-21T05:32:38;99886.97;;;9.08;100.00
33280;BME280;20403;43.114;12.434;2023-02-21T05:35:04;99881.47;;;8.89;100.00
33280;BME280;20403;43.114;12.434;2023-02-21T05:37:30;99875.72;;;9.00;100.00
33280;BME280;20403;43.114;12.434;2023-02-21T05:39:55;99873.16;;;9.07;100.00
33280;BME280;20403;43.114;12.434;2023-02-21T05:42:20;99871.00;;;9.11;100.00
33280;BME280;20403;43.114;12.434;2023-02-21T05:44:46;99872.22;;;9.21;100.00
33280;BME280;20403;43.114;12.434;2023-02-21T05:47:15;99863.84;;;9.26;100.00
33280;BME280;20403;43.114;12.434;2023-02-21T05:49:41;99871.28;;;9.29;100.00
33280;BME280;20403;43.114;12.434;2023-02-21T05:52:10;99877.06;;;9.24;100.00
33280;BME280;20403;43.114;12.434;2023-02-21T05:54:36;99874.84;;;9.21;100.00
33280;BME280;20403;43.114;12.434;2023-02-21T05:57:02;99879.41;;;9.13;100.00
33280;BME280;20403;43.114;12.434;2023-02-21T05:59:27;99873.22;;;9.14;100.00
33280;BME280;20403;43.114;12.434;2023-02-21T06:01:53;99869.13;;;8.98;100.00
33280;BME280;20403;43.114;12.434;2023-02-21T06:04:18;99876.97;;;9.04;100.00
33280;BME280;20403;43.114;12.434;2023-02-21T06:06:44;99871.81;;;9.11;100.00
33280;BME280;20403;43.114;12.434;2023-02-21T06:09:09;99873.56;;;9.04;100.00
33280;BME280;20403;43.114;12.434;2023-02-21T06:11:36;99876.13;;;8.97;100.00
33280;BME280;20403;43.114;12.434;2023-02-21T06:14:04;99874.38;;;9.04;100.00
33280;BME280;20403;43.114;12.434;2023-02-21T06:16:35;99874.19;;;9.06;100.00
33280;BME280;20403;43.114;12.434;2023-02-21T06:19:02;99876.38;;;9.09;100.00
33280;BME280;20403;43.114;12.434;2023-02-21T06:21:27;99877.16;;;9.03;100.00
33280;BME280;20403;43.114;12.434;2023-02-21T06:23:52;99876.97;;;9.04;100.00
33280;BME280;20403;43.114;12.434;2023-02-21T06:26:19;99875.16;;;9.05;100.00
33280;BME280;20403;43.114;12.434;2023-02-21T06:28:45;99880.38;;;9.05;100.00
33280;BME280;20403;43.114;12.434;2023-02-21T06:31:11;99887.22;;;9.13;100.00
33280;BME280;20403;43.114;12.434;2023-02-21T06:33:37;99882.16;;;9.04;100.00
33280;BME280;20403;43.114;12.434;2023-02-21T06:36:07;99887.16;;;8.99;100.00
33280;BME280;20403;43.114;12.434;2023-02-21T06:38:33;99885.00;;;9.10;100.00
33280;BME280;20403;43.114;12.434;2023-02-21T06:40:59;99888.81;;;9.14;100.00
33280;BME280;20403;43.114;12.434;2023-02-21T06:43:25;99893.63;;;9.17;100.00
33280;BME280;20403;43.114;12.434;2023-02-21T06:45:50;99893.63;;;9.17;100.00
33280;BME280;20403;43.114;12.434;2023-02-21T06:48:16;99891.84;;;9.17;100.00
33280;BME280;20403;43.114;12.434;2023-02-21T06:50:42;99886.03;;;9.15;100.00
33280;BME280;20403;43.114;12.434;2023-02-21T06:53:08;99885.25;;;9.21;100.00
33280;BME280;20403;43.114;12.434;2023-02-21T06:55:34;99882.06;;;9.26;100.00
33280;BME280;20403;43.114;12.434;2023-02-21T06:58:00;99883.84;;;9.19;100.00
33280;BME280;20403;43.114;12.434;2023-02-21T07:00:25;99885.81;;;9.17;100.00
33280;BME280;20403;43.114;12.434;2023-02-21T07:02:53;99879.69;;;9.24;100.00
33280;BME280;20403;43.114;12.434;2023-02-21T07:05:18;99882.66;;;9.21;100.00
33280;BME280;20403;43.114;12.434;2023-02-21T07:07:44;99882.06;;;9.26;100.00
33280;BME280;20403;43.114;12.434;2023-02-21T07:10:10;99887.66;;;9.23;100.00
33280;BME280;20403;43.114;12.434;2023-02-21T07:12:36;99880.69;;;9.30;100.00
33280;BME280;20403;43.114;12.434;2023-02-21T07:15:02;99888.94;;;9.34;100.00
33280;BME280;20403;43.114;12.434;2023-02-21T07:17:27;99880.28;;;9.33;100.00
33280;BME280;20403;43.114;12.434;2023-02-21T07:19:53;99881.16;;;9.40;100.00
33280;BME280;20403;43.114;12.434;2023-02-21T07:22:18;99876.53;;;9.42;100.00
33280;BME280;20403;43.114;12.434;2023-02-21T07:24:50;99874.16;;;9.48;100.00
33280;BME280;20403;43.114;12.434;2023-02-21T07:27:16;99864.31;;;9.50;100.00
33280;BME280;20403;43.114;12.434;2023-02-21T07:29:41;99867.78;;;9.57;100.00
33280;BME280;20403;43.114;12.434;2023-02-21T07:32:06;99875.97;;;9.54;100.00
33280;BME280;20403;43.114;12.434;2023-02-21T07:34:32;99872.78;;;9.58;100.00
33280;BME280;20403;43.114;12.434;2023-02-21T07:36:57;99872.16;;;9.56;100.00
33280;BME280;20403;43.114;12.434;2023-02-21T07:39:23;99874.59;;;9.58;100.00
33280;BME280;20403;43.114;12.434;2023-02-21T07:41:48;99872.56;;;9.53;100.00
33280;BME280;20403;43.114;12.434;2023-02-21T07:44:13;99868.59;;;9.57;100.00
33280;BME280;20403;43.114;12.434;2023-02-21T07:46:39;99868.59;;;9.57;100.00
33280;BME280;20403;43.114;12.434;2023-02-21T07:49:07;99876.78;;;9.61;100.00
33280;BME280;20403;43.114;12.434;2023-02-21T07:51:33;99868.97;;;9.61;100.00
33280;BME280;20403;43.114;12.434;2023-02-21T07:54:00;99871.22;;;9.64;100.00
33280;BME280;20403;43.114;12.434;2023-02-21T07:56:25;99867.19;;;9.61;100.00
33280;BME280;20403;43.114;12.434;2023-02-21T07:58:51;99868.19;;;9.67;100.00
33280;BME280;20403;43.114;12.434;2023-02-21T08:01:16;99871.59;;;9.67;100.00
33280;BME280;20403;43.114;12.434;2023-02-21T08:03:42;99868.03;;;9.68;100.00
33280;BME280;20403;43.114;12.434;2023-02-21T08:06:08;99875.25;;;9.73;100.00
33280;BME280;20403;43.114;12.434;2023-02-21T08:08:34;99869.81;;;9.75;100.00
33280;BME280;20403;43.114;12.434;2023-02-21T08:11:00;99872.22;;;9.76;100.00
33280;BME280;20403;43.114;12.434;2023-02-21T08:13:25;99870.44;;;9.77;100.00
33280;BME280;20403;43.114;12.434;2023-02-21T08:15:51;99872.66;;;9.80;100.00
33280;BME280;20403;43.114;12.434;2023-02-21T08:18:18;99873.66;;;9.85;100.00
33280;BME280;20403;43.114;12.434;2023-02-21T08:20:50;99876.28;;;9.92;100.00
33280;BME280;20403;43.114;12.434;2023-02-21T08:23:17;99869.09;;;10.01;100.00
33280;BME280;20403;43.114;12.434;2023-02-21T08:25:44;99868.69;;;10.04;100.00
33280;BME280;20403;43.114;12.434;2023-02-21T08:28:09;99877.88;;;10.00;100.00
33280;BME280;20403;43.114;12.434;2023-02-21T08:30:35;99876.69;;;10.09;100.00
33280;BME280;20403;43.114;12.434;2023-02-21T08:33:00;99867.06;;;10.16;100.00
33280;BME280;20403;43.114;12.434;2023-02-21T08:35:26;99872.09;;;10.24;100.00
33280;BME280;20403;43.114;12.434;2023-02-21T08:37:51;99874.53;;;10.33;100.00
33280;BME280;20403;43.114;12.434;2023-02-21T08:40:21;99874.94;;;10.36;100.00
33280;BME280;20403;43.114;12.434;2023-02-21T08:42:49;99867.72;;;10.32;100.00
33280;BME280;20403;43.114;12.434;2023-02-21T08:45:16;99876.53;;;10.37;100.00
33280;BME280;20403;43.114;12.434;2023-02-21T08:47:42;99876.53;;;10.44;100.00
33280;BME280;20403;43.114;12.434;2023-02-21T08:50:07;99872.72;;;10.46;100.00
33280;BME280;20403;43.114;12.434;2023-02-21T08:52:33;99875.94;;;10.55;100.00
33280;BME280;20403;43.114;12.434;2023-02-21T08:54:58;99873.94;;;10.50;100.00
33280;BME280;20403;43.114;12.434;2023-02-21T08:57:23;99872.53;;;10.48;100.00
33280;BME280;20403;43.114;12.434;2023-02-21T08:59:49;99869.91;;;10.48;100.00
33280;BME280;20403;43.114;12.434;2023-02-21T09:02:20;99872.94;;;10.51;100.00
33280;BME280;20403;43.114;12.434;2023-02-21T09:04:47;99872.53;;;10.48;100.00
33280;BME280;20403;43.114;12.434;2023-02-21T09:07:13;99865.91;;;10.52;100.00
33280;BME280;20403;43.114;12.434;2023-02-21T09:09:39;99868.91;;;10.62;100.00
33280;BME280;20403;43.114;12.434;2023-02-21T09:12:05;99874.34;;;10.61;100.00
33280;BME280;20403;43.114;12.434;2023-02-21T09:14:38;99869.91;;;10.61;100.00
33280;BME280;20403;43.114;12.434;2023-02-21T09:17:06;99867.31;;;10.61;100.00
33280;BME280;20403;43.114;12.434;2023-02-21T09:19:32;99867.50;;;10.60;100.00
33280;BME280;20403;43.114;12.434;2023-02-21T09:21:57;99865.06;;;10.71;100.00
33280;BME280;20403;43.114;12.434;2023-02-21T09:24:24;99861.84;;;10.76;100.00
33280;BME280;20403;43.114;12.434;2023-02-21T09:26:51;99866.69;;;10.79;100.00
33280;BME280;20403;43.114;12.434;2023-02-21T09:29:20;99861.66;;;10.78;100.00
33280;BME280;20403;43.114;12.434;2023-02-21T09:31:46;99860.25;;;10.82;100.00
33280;BME280;20403;43.114;12.434;2023-02-21T09:34:11;99859.84;;;10.78;100.00
33280;BME280;20403;43.114;12.434;2023-02-21T09:36:36;99859.66;;;10.86;100.00
33280;BME280;20403;43.114;12.434;2023-02-21T09:39:03;99861.84;;;10.89;100.00
33280;BME280;20403;43.114;12.434;2023-02-21T09:41:31;99863.22;;;10.99;100.00
33280;BME280;20403;43.114;12.434;2023-02-21T09:43:57;99858.00;;;10.99;100.00
33280;BME280;20403;43.114;12.434;2023-02-21T09:46:39;99862.59;;;11.10;100.00
33280;BME280;20403;43.114;12.434;2023-02-21T09:49:27;99862.34;;;11.18;100.00
33280;BME280;20403;43.114;12.434;2023-02-21T09:51:55;99860.94;;;11.22;100.00
33280;BME280;20403;43.114;12.434;2023-02-21T09:54:27;99865.13;;;11.30;100.00
33280;BME280;20403;43.114;12.434;2023-02-21T09:56:57;99860.47;;;11.32;100.00
33280;BME280;20403;43.114;12.434;2023-02-21T09:59:24;99860.69;;;11.37;100.00
33280;BME280;20403;43.114;12.434;2023-02-21T10:04:37;99854.63;;;11.36;100.00
33280;BME280;20403;43.114;12.434;2023-02-21T10:10:11;99861.19;;;11.52;100.00
33280;BME280;20403;43.114;12.434;2023-02-21T10:15:19;99853.06;;;11.74;100.00
33280;BME280;20403;43.114;12.434;2023-02-21T10:17:55;99851.19;;;11.88;100.00
33280;BME280;20403;43.114;12.434;2023-02-21T10:20:33;99852.75;;;11.95;100.00
33280;BME280;20403;43.114;12.434;2023-02-21T10:23:01;99844.84;;;12.02;100.00
33280;BME280;20403;43.114;12.434;2023-02-21T10:25:30;99844.00;;;12.08;100.00
33280;BME280;20403;43.114;12.434;2023-02-21T10:27:58;99839.16;;;12.12;100.00
33280;BME280;20403;43.114;12.434;2023-02-21T10:30:35;99841.91;;;12.17;100.00
33280;BME280;20403;43.114;12.434;2023-02-21T10:33:03;99839.63;;;12.27;100.00
33280;BME280;20403;43.114;12.434;2023-02-21T10:35:33;99836.47;;;12.18;100.00
33280;BME280;20403;43.114;12.434;2023-02-21T10:38:00;99837.38;;;12.31;100.00
33280;BME280;20403;43.114;12.434;2023-02-21T10:43:08;99831.09;;;12.38;100.00
33280;BME280;20403;43.114;12.434;2023-02-21T10:45:43;99831.00;;;12.45;100.00
33280;BME280;20403;43.114;12.434;2023-02-21T10:48:10;99822.00;;;12.41;100.00
33280;BME280;20403;43.114;12.434;2023-02-21T10:50:43;99821.97;;;12.48;100.00
33280;BME280;20403;43.114;12.434;2023-02-21T10:53:27;99814.84;;;12.55;100.00
33280;BME280;20403;43.114;12.434;2023-02-21T10:58:38;99815.44;;;12.57;100.00
33280;BME280;20403;43.114;12.434;2023-02-21T11:03:47;99807.72;;;12.62;100.00
33280;BME280;20403;43.114;12.434;2023-02-21T11:08:51;99811.28;;;12.68;100.00
33280;BME280;20403;43.114;12.434;2023-02-21T11:11:31;99799.44;;;12.65;100.00
33280;BME280;20403;43.114;12.434;2023-02-21T11:14:26;99807.41;;;12.70;100.00
33280;BME280;20403;43.114;12.434;2023-02-21T11:17:13;99806.63;;;12.70;100.00
33280;BME280;20403;43.114;12.434;2023-02-21T11:22:09;99788.69;;;12.73;100.00
33280;BME280;20403;43.114;12.434;2023-02-21T11:24:49;99781.63;;;12.74;100.00
33280;BME280;20403;43.114;12.434;2023-02-21T11:27:16;99775.16;;;12.76;100.00
33280;BME280;20403;43.114;12.434;2023-02-21T11:29:43;99770.91;;;12.75;100.00
33280;BME280;20403;43.114;12.434;2023-02-21T11:32:20;99762.00;;;12.65;100.00
33280;BME280;20403;43.114;12.434;2023-02-21T11:34:48;99760.69;;;12.74;100.00
33280;BME280;20403;43.114;12.434;2023-02-21T11:37:14;99758.06;;;12.74;100.00
33280;BME280;20403;43.114;12.434;2023-02-21T11:39:40;99753.56;;;12.81;100.00
33280;BME280;20403;43.114;12.434;2023-02-21T11:42:29;99750.56;;;12.77;100.00
33280;BME280;20403;43.114;12.434;2023-02-21T11:45:12;99746.38;;;12.76;100.00
33280;BME280;20403;43.114;12.434;2023-02-21T11:47:45;99742.28;;;12.80;100.00
33280;BME280;20403;43.114;12.434;2023-02-21T11:50:32;99733.53;;;12.87;100.00
33280;BME280;20403;43.114;12.434;2023-02-21T11:53:05;99726.44;;;12.75;100.00
33280;BME280;20403;43.114;12.434;2023-02-21T11:55:31;99734.78;;;12.84;100.00
33280;BME280;20403;43.114;12.434;2023-02-21T11:58:17;99720.69;;;12.85;100.00
33280;BME280;20403;43.114;12.434;2023-02-21T12:00:51;99718.34;;;12.95;100.00
33280;BME280;20403;43.114;12.434;2023-02-21T12:06:42;99712.22;;;13.01;100.00
33280;BME280;20403;43.114;12.434;2023-02-21T12:12:14;99704.63;;;13.12;100.00
33280;BME280;20403;43.114;12.434;2023-02-21T12:20:27;99691.81;;;13.22;100.00
33280;BME280;20403;43.114;12.434;2023-02-21T12:28:05;99680.63;;;13.15;100.00
33280;BME280;20403;43.114;12.434;2023-02-21T12:30:45;99680.97;;;13.18;100.00
33280;BME280;20403;43.114;12.434;2023-02-21T13:05:39;99650.94;;;12.91;100.00
33280;BME280;20403;43.114;12.434;2023-02-21T13:08:16;99651.78;;;13.03;100.00
33280;BME280;20403;43.114;12.434;2023-02-21T13:13:33;99637.78;;;12.97;100.00
33280;BME280;20403;43.114;12.434;2023-02-21T13:16:04;99644.59;;;12.98;100.00
33280;BME280;20403;43.114;12.434;2023-02-21T13:18:35;99640.59;;;12.96;100.00
33280;BME280;20403;43.114;12.434;2023-02-21T13:29:36;99628.00;;;13.04;100.00
33280;BME280;20403;43.114;12.434;2023-02-21T13:34:53;99616.28;;;13.07;100.00
33280;BME280;20403;43.114;12.434;2023-02-21T13:37:26;99619.94;;;13.06;100.00
33280;BME280;20403;43.114;12.434;2023-02-21T13:42:41;99612.66;;;13.08;100.00
33280;BME280;20403;43.114;12.434;2023-02-21T13:45:15;99607.16;;;13.10;100.00
33280;BME280;20403;43.114;12.434;2023-02-21T13:53:29;99593.84;;;13.11;100.00
33280;BME280;20403;43.114;12.434;2023-02-21T13:58:45;99592.50;;;13.20;100.00
33280;BME280;20403;43.114;12.434;2023-02-21T14:03:43;99590.59;;;13.28;100.00
33280;BME280;20403;43.114;12.434;2023-02-21T14:13:51;99597.06;;;13.25;100.00
33280;BME280;20403;43.114;12.434;2023-02-21T14:17:03;99592.16;;;13.17;100.00
33280;BME280;20403;43.114;12.434;2023-02-21T14:22:24;99582.59;;;13.22;100.00
33280;BME280;20403;43.114;12.434;2023-02-21T14:25:03;99584.44;;;13.22;100.00
33280;BME280;20403;43.114;12.434;2023-02-21T14:27:31;99581.13;;;13.15;100.00
33280;BME280;20403;43.114;12.434;2023-02-21T14:32:27;99580.97;;;13.10;100.00
33280;BME280;20403;43.114;12.434;2023-02-21T14:34:57;99571.56;;;13.09;100.00
33280;BME280;20403;43.114;12.434;2023-02-21T14:48:35;99562.53;;;13.04;100.00
33280;BME280;20403;43.114;12.434;2023-02-21T15:09:32;99551.19;;;13.11;100.00
33280;BME280;20403;43.114;12.434;2023-02-21T15:11:57;99554.00;;;13.09;100.00
33280;BME280;20403;43.114;12.434;2023-02-21T15:14:26;99549.81;;;13.08;100.00
33280;BME280;20403;43.114;12.434;2023-02-21T15:16:56;99541.28;;;13.13;100.00
33280;BME280;20403;43.114;12.434;2023-02-21T15:19:32;99554.91;;;13.03;100.00
33280;BME280;20403;43.114;12.434;2023-02-21T15:22:19;99543.75;;;12.96;100.00
33280;BME280;20403;43.114;12.434;2023-02-21T15:30:18;99543.63;;;12.91;100.00
33280;BME280;20403;43.114;12.434;2023-02-21T15:35:30;99542.59;;;12.80;100.00
33280;BME280;20403;43.114;12.434;2023-02-21T15:37:58;99545.19;;;12.80;100.00
33280;BME280;20403;43.114;12.434;2023-02-21T15:40:25;99541.47;;;12.76;100.00
33280;BME280;20403;43.114;12.434;2023-02-21T15:42:53;99543.50;;;12.74;100.00
33280;BME280;20403;43.114;12.434;2023-02-21T15:45:26;99548.63;;;12.69;100.00
33280;BME280;20403;43.114;12.434;2023-02-21T15:47:54;99542.66;;;12.61;100.00
33280;BME280;20403;43.114;12.434;2023-02-21T15:52:52;99540.72;;;12.57;100.00
33280;BME280;20403;43.114;12.434;2023-02-21T15:57:56;99539.34;;;12.54;100.00
33280;BME280;20403;43.114;12.434;2023-02-21T16:08:32;99528.06;;;12.42;100.00
33280;BME280;20403;43.114;12.434;2023-02-21T16:11:02;99530.66;;;12.42;100.00
33280;BME280;20403;43.114;12.434;2023-02-21T16:13:38;99533.28;;;12.42;100.00
33280;BME280;20403;43.114;12.434;2023-02-21T16:16:05;99525.88;;;12.39;100.00
33280;BME280;20403;43.114;12.434;2023-02-21T16:18:31;99526.91;;;12.38;100.00
33280;BME280;20403;43.114;12.434;2023-02-21T16:20:59;99522.47;;;12.38;100.00
33280;BME280;20403;43.114;12.434;2023-02-21T16:28:19;99529.03;;;12.29;100.00
33280;BME280;20403;43.114;12.434;2023-02-21T16:30:44;99527.09;;;12.25;100.00